Flight Track Log - Related Links

Times and Time Zones

All times are in EST time to prevent confusion due to time zone crossing. See the PKW653 flight status page for this flight to view local times or setup timezone preferences in your user account.


Time Position Orientation Groundspeed Altitude Reporting Facility
EST Latitude Longitude Course Direction KTS MPH feet Rate Location/Type
Tue 02:35:11 AM 36.2222 -95.8831 358° North 143 165 2,300  Level Kansas City Center
Tue 02:36:08 AM 36.2278 -95.9264 279° West 162 186 4,100 1,781 Climbing Kansas City Center
Tue 02:36:15 AM 36.2283 -95.9286 287° West 155 178 4,200 1,770 Climbing Kansas City Center
Tue 02:37:09 AM 36.2117 -95.9828 249° West 168 193 5,900 1,700 Climbing Kansas City Center
Tue 02:37:15 AM 36.2122 -95.9819 50° Northeast 162 186 5,900 1,700 Level Kansas City Center
Tue 02:38:09 AM 36.2017 -96.0386 257° West 167 192 7,600 1,700 Climbing Kansas City Center
Tue 02:38:15 AM 36.2028 -96.0386 360° North 165 190 7,600 1,164 Level Kansas City Center
Tue 02:39:16 AM 36.1944 -96.0939 259° West 163 188 8,900 1,289 Climbing Kansas City Center
Tue 02:40:16 AM 36.1808 -96.1497 253° West 168 193 10,200 1,600 Climbing Kansas City Center
Tue 02:41:16 AM 36.1722 -96.2064 259° West 167 192 12,100 1,869 Climbing Kansas City Center
Tue 02:42:18 AM 36.1603 -96.2625 255° West 167 192 14,000 1,785 Climbing Kansas City Center
Tue 02:43:17 AM 36.1519 -96.3208 260° West 170 196 15,700 1,160 Climbing Kansas City Center
Tue 02:44:17 AM 36.1364 -96.3850 253° West 187 215 16,300 197 Climbing Kansas City Center
Tue 02:45:19 AM 36.1222 -96.4633 257° West 220 253 16,100 -100 Descending Kansas City Center
Tue 02:46:17 AM 36.1064 -96.5481 257° West 245 282 16,100  Level Kansas City Center
Tue 02:47:18 AM 36.0875 -96.6347 255° West 256 295 16,100  Level Kansas City Center
Tue 02:48:18 AM 36.0658 -96.7211 253° West 262 302 16,100 -50 Level Kansas City Center
Tue 02:49:18 AM 36.0289 -96.8100 243° Southwest 269 310 16,000 -100 Descending Kansas City Center
Tue 02:50:18 AM 35.9981 -96.8936 246° West 269 310 15,900  Descending Kansas City Center
Tue 02:51:20 AM 35.9661 -96.9753 244° Southwest 267 307 16,000 50 Climbing Kansas City Center
Tue 02:52:19 AM 35.9364 -97.0592 246° West 267 307 16,000 -50 Level Kansas City Center
Tue 02:53:20 AM 35.9031 -97.1408 243° Southwest 267 307 15,900  Descending Kansas City Center
Tue 02:54:20 AM 35.8706 -97.2219 244° Southwest 267 307 16,000 50 Climbing Kansas City Center
Tue 02:55:21 AM 35.8400 -97.3047 246° West 267 307 16,000  Level Kansas City Center
Tue 02:56:20 AM 35.8078 -97.3856 244° Southwest 266 306 16,000  Level Kansas City Center
Tue 02:57:22 AM 35.7761 -97.4686 245° Southwest 267 307 16,000  Level Kansas City Center
Tue 02:58:21 AM 35.7433 -97.5497 244° Southwest 268 308 16,000  Level Kansas City Center
Tue 02:59:23 AM 35.7119 -97.6319 245° Southwest 268 308 16,000 50 Level Kansas City Center
Tue 03:00:22 AM 35.6803 -97.7139 245° Southwest 268 308 16,100 50 Climbing Kansas City Center
Tue 03:01:23 AM 35.6519 -97.7978 247° West 268 308 16,100  Level Kansas City Center
Tue 03:02:23 AM 35.6106 -97.8947 242° Southwest 268 308 16,100 -50 Level Fort Worth Center
Tue 03:03:23 AM 35.5778 -97.9775 244° Southwest 271 312 16,000 -50 Descending Fort Worth Center
Tue 03:04:23 AM 35.5450 -98.0586 244° Southwest 267 307 16,000  Level Fort Worth Center
Tue 03:05:24 AM 35.5097 -98.1383 241° Southwest 266 306 16,000  Level Fort Worth Center
Tue 03:06:24 AM 35.4775 -98.2203 244° Southwest 267 307 16,000 50 Level Fort Worth Center
Tue 03:07:24 AM 35.4428 -98.3003 242° Southwest 266 306 16,100 50 Climbing Fort Worth Center
Tue 03:08:24 AM 35.4119 -98.3833 246° West 269 310 16,100  Level Fort Worth Center
Tue 03:09:24 AM 35.3831 -98.4661 247° West 264 304 16,100  Level Fort Worth Center
Tue 03:10:25 AM 35.3503 -98.5453 243° Southwest 264 304 16,100  Level Fort Worth Center
Tue 03:11:25 AM 35.3181 -98.6250 244° Southwest 261 300 16,100 -50 Level Fort Worth Center
Tue 03:12:25 AM 35.2833 -98.7094 243° Southwest 266 306 16,000 -50 Descending Fort Worth Center
Tue 03:13:25 AM 35.2486 -98.7939 243° Southwest 274 315 16,000  Level Fort Worth Center
Tue 03:14:25 AM 35.2147 -98.8758 243° Southwest 269 310 16,000  Level Fort Worth Center
Tue 03:15:26 AM 35.1825 -98.9594 245° Southwest 269 310 16,000  Level Fort Worth Center
Tue 03:16:26 AM 35.1494 -99.0411 244° Southwest 268 308 16,000 50 Level Fort Worth Center
Tue 03:17:26 AM 35.1136 -99.1236 242° Southwest 271 312 16,100 50 Climbing Fort Worth Center
Tue 03:18:26 AM 35.0806 -99.2067 244° Southwest 271 312 16,100 -50 Level Fort Worth Center
Tue 03:19:27 AM 35.0472 -99.2900 244° Southwest 271 312 16,000 -50 Descending Fort Worth Center
Tue 03:20:27 AM 35.0144 -99.3731 244° Southwest 270 311 16,000  Level Fort Worth Center
Tue 03:21:27 AM 34.9794 -99.4561 243° Southwest 273 314 16,000  Level Fort Worth Center
Tue 03:22:27 AM 34.9439 -99.5364 242° Southwest 269 310 16,000 -50 Level Fort Worth Center
Tue 03:23:27 AM 34.9128 -99.6211 246° West 271 312 15,900 50 Descending Fort Worth Center
Tue 03:24:28 AM 34.8764 -99.7028 242° Southwest 272 313 16,100 149 Climbing Fort Worth Center
Tue 03:25:28 AM 34.8483 -99.7667 243° Southwest 268 308 16,200 50 Climbing Fort Worth Center
Tue 03:26:00 AM 34.8157 -99.8292 240° Southwest  Level FlightAware Approximate
Tue 03:26:28 AM 34.8128 -99.8483 242° Southwest 271 312 16,200  Level Fort Worth Center
Tue 03:27:28 AM 34.7794 -99.9314 244° Southwest 271 312 16,200 -50 Level Fort Worth Center
Tue 03:28:28 AM 34.7428 -100.0111 241° Southwest 269 310 16,100 -50 Descending Fort Worth Center
Tue 03:29:29 AM 34.7097 -100.0928 244° Southwest 268 308 16,100 -99 Level Fort Worth Center
Tue 03:30:29 AM 34.6742 -100.1758 243° Southwest 273 314 15,900 -50 Descending Fort Worth Center
Tue 03:31:29 AM 34.6386 -100.2600 243° Southwest 278 320 16,000  Climbing Fort Worth Center
Tue 03:32:29 AM 34.6089 -100.3453 247° West 273 314 15,900 50 Descending Fort Worth Center
Tue 03:33:00 AM 34.5609 -100.4193 243° Southwest  Level FlightAware Approximate
Tue 03:33:30 AM 34.5681 -100.4283 239° Southwest 282 325 16,100  Level Fort Worth Center
Tue 03:34:00 AM 34.5247 -100.5038 243° Southwest  Level FlightAware Approximate
Tue 03:34:30 AM 34.5292 -100.5089 240° Southwest 276 318 16,200  Level Fort Worth Center
Tue 03:36:00 AM 34.4694 -100.6386 241° Southwest  Level FlightAware Approximate
Tue 03:38:31 AM 34.3969 -100.8347 242° Southwest 272 313 16,200  Level Fort Worth Center
Tue 03:39:31 AM 34.3614 -100.9142 242° Southwest 269 310 16,100 -63 Descending Fort Worth Center
Tue 03:40:07 AM 34.3333 -100.9731 240° Southwest 268 308 16,100 100 Level Fort Worth Center
Tue 03:40:31 AM 34.3231 -100.9936 239° Southwest 272 313 16,200  Climbing Fort Worth Center
Tue 03:41:08 AM 34.2964 -101.0506 240° Southwest 263 303 16,100 -100 Descending Fort Worth Center
Tue 03:41:31 AM 34.2858 -101.0831 249° West 268 308 16,100  Level Fort Worth Center
Tue 03:42:08 AM 34.2642 -101.1317 242° Southwest 262 302 16,100  Level Fort Worth Center
Tue 03:42:31 AM 34.2528 -101.1619 246° West 265 305 16,100  Level Fort Worth Center
Tue 03:43:00 AM 34.2034 -101.2509 242° Southwest  Level FlightAware Approximate
Tue 03:43:09 AM 34.2317 -101.2103 242° Southwest 264 304 16,100  Level Fort Worth Center
Tue 03:43:32 AM 34.2208 -101.2408 247° West 262 302 16,100 100 Level Fort Worth Center
Tue 03:44:09 AM 34.1978 -101.2944 243° Southwest 263 303 16,200  Climbing Fort Worth Center
Tue 03:44:32 AM 34.1872 -101.3189 242° Southwest 262 302 16,100 -98 Descending Fort Worth Center
Tue 03:45:10 AM 34.1628 -101.3736 242° Southwest 265 305 16,100 100 Level Fort Worth Center
Tue 03:45:32 AM 34.1517 -101.3969 240° Southwest 265 305 16,200  Climbing Fort Worth Center
Tue 03:46:11 AM 34.1256 -101.4506 240° Southwest 265 305 16,100 -100 Descending Fort Worth Center
Tue 03:46:32 AM 34.1133 -101.4803 244° Southwest 265 305 16,100  Level Fort Worth Center
Tue 03:47:11 AM 34.0925 -101.5264 241° Southwest 263 303 16,100  Level Fort Worth Center
Tue 03:47:32 AM 34.0811 -101.5592 247° West 263 303 16,100  Level Fort Worth Center
Tue 03:48:12 AM 34.0597 -101.6050 241° Southwest 260 299 16,100 -98 Level Fort Worth Center
Tue 03:48:33 AM 34.0464 -101.6347 242° Southwest 261 300 16,000  Descending Fort Worth Center
Tue 03:49:12 AM 34.0244 -101.6811 240° Southwest 263 303 16,100 100 Climbing Fort Worth Center
Tue 03:49:33 AM 34.0122 -101.7119 244° Southwest 261 300 16,100  Level Fort Worth Center
Tue 03:50:13 AM 33.9894 -101.7600 240° Southwest 264 304 16,100  Level Fort Worth Center
Tue 03:50:33 AM 33.9769 -101.7897 243° Southwest 264 304 16,100 98 Level Fort Worth Center
Tue 03:51:14 AM 33.9550 -101.8436 244° Southwest 261 300 16,200  Climbing Fort Worth Center
Tue 03:51:33 AM 33.9433 -101.8661 238° Southwest 261 300 16,100 -100 Descending Fort Worth Center
Tue 03:52:14 AM 33.9175 -101.9200 240° Southwest 266 306 16,100  Level Fort Worth Center
Tue 03:52:33 AM 33.9075 -101.9433 243° Southwest 264 304 16,100 98 Level Fort Worth Center
Tue 03:53:15 AM 33.8842 -101.9958 242° Southwest 264 304 16,200 -98 Climbing Fort Worth Center
Tue 03:53:34 AM 33.8722 -102.0194 239° Southwest 261 300 16,000 -76 Descending Fort Worth Center
Tue 03:54:34 AM 33.8378 -102.0967 242° Southwest 263 303 16,100 50 Climbing Fort Worth Center
Tue 03:55:34 AM 33.8044 -102.1758 243° Southwest 266 306 16,100  Level Fort Worth Center
Tue 03:56:34 AM 33.7717 -102.2542 243° Southwest 264 304 16,100 -50 Level Fort Worth Center
Tue 03:57:34 AM 33.7361 -102.3319 241° Southwest 266 306 16,000  Descending Fort Worth Center
Tue 03:58:35 AM 33.6961 -102.4158 240° Southwest 268 308 16,100 50 Climbing Fort Worth Center
Tue 03:59:35 AM 33.6600 -102.4939 241° Southwest 267 307 16,100  Level Fort Worth Center
Tue 04:00:35 AM 33.6272 -102.5733 244° Southwest 266 306 16,100  Level Fort Worth Center
Tue 04:01:35 AM 33.5933 -102.6525 243° Southwest 268 308 16,100  Level Fort Worth Center
Tue 04:02:35 AM 33.5564 -102.7303 240° Southwest 270 311 16,100  Level Fort Worth Center
Tue 04:03:35 AM 33.5206 -102.8067 241° Southwest 266 306 16,100  Level Fort Worth Center
Tue 04:04:36 AM 33.4839 -102.8817 240° Southwest 264 304 16,100 -50 Level Fort Worth Center
Tue 04:05:36 AM 33.4528 -102.9528 242° Southwest 266 306 16,000  Descending Fort Worth Center
Tue 04:06:36 AM 33.4200 -103.0294 243° Southwest 261 300 16,100  Climbing Fort Worth Center
Tue 04:07:36 AM 33.3833 -103.1028 239° Southwest 260 299 16,000  Descending Fort Worth Center
Tue 04:08:36 AM 33.3494 -103.1767 241° Southwest 257 296 16,100 50 Climbing Fort Worth Center
Tue 04:09:37 AM 33.3178 -103.2514 243° Southwest 254 292 16,100  Level Fort Worth Center
Tue 04:10:37 AM 33.2817 -103.3253 240° Southwest 257 296 16,100 50 Level Fort Worth Center
Tue 04:11:37 AM 33.2489 -103.3981 242° Southwest 253 291 16,200 50 Climbing Fort Worth Center
Tue 04:12:37 AM 33.2144 -103.4719 241° Southwest 253 291 16,200 -50 Level Fort Worth Center
Tue 04:13:38 AM 33.1800 -103.5433 240° Southwest 253 291 16,100  Descending Fort Worth Center
Tue 04:14:38 AM 33.1450 -103.6156 240° Southwest 253 291 16,200  Climbing Fort Worth Center
Tue 04:15:38 AM 33.1128 -103.6875 242° Southwest 251 289 16,100 -50 Descending Fort Worth Center
Tue 04:16:38 AM 33.0811 -103.7611 243° Southwest 251 289 16,100 50 Level Fort Worth Center
Tue 04:17:38 AM 33.0469 -103.8303 240° Southwest 248 285 16,200  Climbing Fort Worth Center
Tue 04:18:39 AM 33.0131 -103.9017 241° Southwest 248 285 16,100 -50 Descending Fort Worth Center
Tue 04:19:39 AM 32.9728 -103.9886 241° Southwest 249 287 16,100 50 Level Fort Worth Center
Tue 04:20:39 AM 32.9378 -104.0592 239° Southwest 249 287 16,200 50 Climbing Fort Worth Center
Tue 04:21:39 AM 32.9042 -104.1308 241° Southwest 250 288 16,200 -50 Level Fort Worth Center
Tue 04:22:40 AM 32.8697 -104.2028 240° Southwest 250 288 16,100  Descending Fort Worth Center
Tue 04:23:40 AM 32.8344 -104.2756 240° Southwest 252 290 16,200 50 Climbing Fort Worth Center
Tue 04:24:40 AM 32.8000 -104.3464 240° Southwest 251 289 16,200 -50 Level Fort Worth Center
Tue 04:25:40 AM 32.7681 -104.4197 243° Southwest 252 290 16,100 -50 Descending Fort Worth Center
Tue 04:26:40 AM 32.7372 -104.4892 242° Southwest 247 284 16,100 50 Level Fort Worth Center
Tue 04:27:41 AM 32.7011 -104.5631 240° Southwest 251 289 16,200  Climbing Fort Worth Center
Tue 04:28:41 AM 32.6644 -104.6331 238° Southwest 251 289 16,100 -50 Descending Fort Worth Center
Tue 04:29:41 AM 32.6314 -104.7078 242° Southwest 254 292 16,100  Level Fort Worth Center
Tue 04:30:41 AM 32.6014 -104.7717 241° Southwest 254 292 16,100  Level Fort Worth Center
Tue 04:32:04 AM 32.5408 -104.8789 236° Southwest 254 292 16,100  Level Albuquerque Center
Tue 04:33:05 AM 32.4997 -104.9483 235° Southwest 257 296 16,100  Level Albuquerque Center
Tue 04:34:05 AM 32.4650 -105.0111 237° Southwest 261 300 16,100  Level Albuquerque Center
Tue 04:35:05 AM 32.4247 -105.0792 235° Southwest 257 296 16,100  Level Albuquerque Center
Tue 04:36:05 AM 32.3844 -105.1475 235° Southwest 253 291 16,100  Level Albuquerque Center
Tue 04:37:05 AM 32.3428 -105.2131 233° Southwest 251 289 16,100  Level Albuquerque Center
Tue 04:38:05 AM 32.3019 -105.2800 234° Southwest 251 289 16,100 -66 Level Albuquerque Center
Tue 04:38:36 AM 32.2731 -105.3222 231° Southwest 253 291 16,000  Descending Albuquerque Center
Tue 04:39:06 AM 32.2622 -105.3486 244° Southwest 253 291 16,100 -98 Climbing Albuquerque Center
Tue 04:39:37 AM 32.2325 -105.3906 230° Southwest 253 291 15,900 -500 Descending Albuquerque Center
Tue 04:40:06 AM 32.2228 -105.4172 247° West 254 292 15,600 -900 Descending Albuquerque Center
Tue 04:40:37 AM 32.1908 -105.4644 231° Southwest 268 308 15,000 -700 Descending Albuquerque Center
Tue 04:41:06 AM 32.1783 -105.4906 241° Southwest 268 308 14,900 -787 Descending Albuquerque Center
Tue 04:41:38 AM 32.1450 -105.5392 231° Southwest 281 323 14,200 -900 Descending Albuquerque Center
Tue 04:42:06 AM 32.1314 -105.5639 237° Southwest 280 322 14,000 -885 Descending Albuquerque Center
Tue 04:42:39 AM 32.0986 -105.6114 231° Southwest 283 326 13,300 -1,000 Descending Albuquerque Center
Tue 04:43:06 AM 32.0847 -105.6372 238° Southwest 280 322 13,000 -800 Descending Albuquerque Center
Tue 04:43:39 AM 32.0528 -105.6858 232° Southwest 275 316 12,500 -787 Descending Albuquerque Center
Tue 04:44:07 AM 32.0408 -105.7092 239° Southwest 274 315 12,200 -885 Descending Albuquerque Center
Tue 04:44:40 AM 32.0047 -105.7608 231° Southwest 272 313 11,600 -800 Descending Albuquerque Center
Tue 04:45:07 AM 31.9947 -105.7797 238° Southwest 273 314 11,400 -700 Descending Albuquerque Center
Tue 04:45:40 AM 31.9608 -105.8347 234° Southwest 271 312 10,900 -700 Descending Albuquerque Center
Tue 04:46:07 AM 31.9533 -105.8533 245° Southwest 270 311 10,700 -689 Descending Albuquerque Center
Tue 04:46:41 AM 31.9258 -105.9114 241° Southwest 268 308 10,200 -700 Descending Albuquerque Center
Tue 04:47:07 AM 31.9206 -105.9467 260° West 266 306 10,000 -295 Descending Albuquerque Center
Tue 04:47:42 AM 31.9089 -105.9933 254° West 254 292 9,900  Descending Albuquerque Center
Tue 04:48:07 AM 31.9006 -106.0256 253° West 255 293 10,000  Climbing Albuquerque Center
Tue 04:48:42 AM 31.8794 -106.0658 238° Southwest 247 284 9,900 -400 Descending Albuquerque Center
Tue 04:49:07 AM 31.8719 -106.0828 242° Southwest 246 283 9,600 -1,279 Descending Albuquerque Center
Tue 04:49:43 AM 31.8428 -106.1328 236° Southwest 239 275 8,600 -1,770 Descending Albuquerque Center
Tue 04:50:08 AM 31.8281 -106.1586 236° Southwest 234 269 7,800 -1,400 Descending Albuquerque Center
Tue 04:50:43 AM 31.8106 -106.1908 237° Southwest 212 244 7,200 -800 Descending Albuquerque Center
Tue 04:51:08 AM 31.8006 -106.2147 244° Southwest 205 236 7,000 -984 Descending Albuquerque Center
Tue 04:51:44 AM 31.7953 -106.2472 259° West 171 197 6,200 -1,200 Descending Albuquerque Center
Tue 04:52:08 AM 31.7953 -106.2692 270° West 171 197 5,800 -984 Descending Albuquerque Center
Tue 04:52:45 AM 31.7958 -106.2969 271° West 143 165 5,200 -1,000 Descending Albuquerque Center
Tue 04:53:08 AM 31.7983 -106.3169 278° West 151 174 4,800 -900 Descending Albuquerque Center
Tue 04:53:45 AM 31.8000 -106.3433 274° West 142 163 4,300 -800 Descending Albuquerque Center
Tue 04:54:08 AM 31.8011 -106.3606 274° West 140 161 4,000 -783 Descending Albuquerque Center

Login

Don't have an account? Register now (free) for customized features, flight alerts, and more!